sensor_id;sensor_type;location;lat;lon;timestamp;P1;durP1;ratioP1;P2;durP2;ratioP2
14251;SDS011;7210;51.502;10.722;2023-12-22T00:04:37;16.10;;;4.57;;
14251;SDS011;7210;51.502;10.722;2023-12-22T00:36:15;26.13;;;5.50;;
14251;SDS011;7210;51.502;10.722;2023-12-22T00:41:42;26.40;;;5.47;;
14251;SDS011;7210;51.502;10.722;2023-12-22T00:47:58;19.17;;;4.23;;
14251;SDS011;7210;51.502;10.722;2023-12-22T00:54:13;21.97;;;5.00;;
14251;SDS011;7210;51.502;10.722;2023-12-22T01:00:27;18.90;;;4.77;;
14251;SDS011;7210;51.502;10.722;2023-12-22T01:06:43;22.07;;;4.43;;
14251;SDS011;7210;51.502;10.722;2023-12-22T01:12:57;22.03;;;4.77;;
14251;SDS011;7210;51.502;10.722;2023-12-22T01:19:11;14.40;;;3.43;;
14251;SDS011;7210;51.502;10.722;2023-12-22T01:25:27;18.43;;;3.87;;
14251;SDS011;7210;51.502;10.722;2023-12-22T01:31:42;20.03;;;4.87;;
14251;SDS011;7210;51.502;10.722;2023-12-22T01:37:56;15.60;;;3.43;;
14251;SDS011;7210;51.502;10.722;2023-12-22T01:50:09;17.13;;;3.93;;
14251;SDS011;7210;51.502;10.722;2023-12-22T01:56:41;17.90;;;3.90;;
14251;SDS011;7210;51.502;10.722;2023-12-22T01:59:23;19.03;;;4.00;;
14251;SDS011;7210;51.502;10.722;2023-12-22T02:10:29;15.70;;;3.93;;
14251;SDS011;7210;51.502;10.722;2023-12-22T02:12:59;12.40;;;3.20;;
14251;SDS011;7210;51.502;10.722;2023-12-22T02:24:36;6.30;;;1.63;;
14251;SDS011;7210;51.502;10.722;2023-12-22T02:30:56;8.73;;;2.43;;
14251;SDS011;7210;51.502;10.722;2023-12-22T02:33:41;6.07;;;1.77;;
14251;SDS011;7210;51.502;10.722;2023-12-22T02:36:17;4.77;;;1.20;;
14251;SDS011;7210;51.502;10.722;2023-12-22T02:38:47;8.00;;;1.97;;
14251;SDS011;7210;51.502;10.722;2023-12-22T02:41:17;4.70;;;1.30;;
14251;SDS011;7210;51.502;10.722;2023-12-22T02:43:44;8.10;;;1.47;;
14251;SDS011;7210;51.502;10.722;2023-12-22T02:46:12;6.10;;;1.50;;
14251;SDS011;7210;51.502;10.722;2023-12-22T02:48:40;7.73;;;3.17;;
14251;SDS011;7210;51.502;10.722;2023-12-22T02:51:07;11.23;;;1.97;;
14251;SDS011;7210;51.502;10.722;2023-12-22T02:53:35;11.87;;;2.70;;
14251;SDS011;7210;51.502;10.722;2023-12-22T02:56:02;11.70;;;2.20;;
14251;SDS011;7210;51.502;10.722;2023-12-22T02:58:31;14.17;;;3.03;;
14251;SDS011;7210;51.502;10.722;2023-12-22T03:00:58;11.83;;;3.00;;
14251;SDS011;7210;51.502;10.722;2023-12-22T03:03:25;14.93;;;3.97;;
14251;SDS011;7210;51.502;10.722;2023-12-22T03:05:53;11.53;;;2.30;;
14251;SDS011;7210;51.502;10.722;2023-12-22T03:08:20;11.80;;;3.13;;
14251;SDS011;7210;51.502;10.722;2023-12-22T03:10:47;11.47;;;2.60;;
14251;SDS011;7210;51.502;10.722;2023-12-22T03:13:15;11.70;;;2.43;;
14251;SDS011;7210;51.502;10.722;2023-12-22T03:15:43;12.83;;;3.43;;
14251;SDS011;7210;51.502;10.722;2023-12-22T03:18:10;16.53;;;2.97;;
14251;SDS011;7210;51.502;10.722;2023-12-22T03:20:37;9.40;;;2.40;;
14251;SDS011;7210;51.502;10.722;2023-12-22T03:23:04;9.93;;;2.60;;
14251;SDS011;7210;51.502;10.722;2023-12-22T03:25:31;12.57;;;2.50;;
14251;SDS011;7210;51.502;10.722;2023-12-22T03:27:58;13.37;;;3.10;;
14251;SDS011;7210;51.502;10.722;2023-12-22T03:30:25;10.40;;;2.37;;
14251;SDS011;7210;51.502;10.722;2023-12-22T03:32:55;9.13;;;3.10;;
14251;SDS011;7210;51.502;10.722;2023-12-22T03:35:22;9.83;;;2.47;;
14251;SDS011;7210;51.502;10.722;2023-12-22T03:37:49;13.27;;;3.23;;
14251;SDS011;7210;51.502;10.722;2023-12-22T03:40:15;13.03;;;2.83;;
14251;SDS011;7210;51.502;10.722;2023-12-22T03:42:42;12.30;;;2.97;;
14251;SDS011;7210;51.502;10.722;2023-12-22T03:45:09;10.07;;;2.77;;
14251;SDS011;7210;51.502;10.722;2023-12-22T03:47:36;15.10;;;3.20;;
14251;SDS011;7210;51.502;10.722;2023-12-22T03:50:05;11.67;;;2.60;;
14251;SDS011;7210;51.502;10.722;2023-12-22T03:52:33;7.03;;;2.87;;
14251;SDS011;7210;51.502;10.722;2023-12-22T03:55:00;15.17;;;3.17;;
14251;SDS011;7210;51.502;10.722;2023-12-22T03:57:27;13.37;;;2.80;;
14251;SDS011;7210;51.502;10.722;2023-12-22T03:59:54;13.93;;;3.60;;
14251;SDS011;7210;51.502;10.722;2023-12-22T04:02:21;15.70;;;2.80;;
14251;SDS011;7210;51.502;10.722;2023-12-22T04:04:53;11.97;;;2.40;;
14251;SDS011;7210;51.502;10.722;2023-12-22T04:07:22;11.60;;;2.90;;
14251;SDS011;7210;51.502;10.722;2023-12-22T04:09:48;12.87;;;3.10;;
14251;SDS011;7210;51.502;10.722;2023-12-22T04:12:15;9.70;;;3.37;;
14251;SDS011;7210;51.502;10.722;2023-12-22T04:14:42;7.83;;;2.50;;
14251;SDS011;7210;51.502;10.722;2023-12-22T04:17:17;10.30;;;2.80;;
14251;SDS011;7210;51.502;10.722;2023-12-22T04:19:44;11.30;;;2.63;;
14251;SDS011;7210;51.502;10.722;2023-12-22T04:22:11;14.40;;;2.60;;
14251;SDS011;7210;51.502;10.722;2023-12-22T04:24:40;5.67;;;2.00;;
14251;SDS011;7210;51.502;10.722;2023-12-22T04:27:06;11.83;;;2.40;;
14251;SDS011;7210;51.502;10.722;2023-12-22T04:29:33;9.43;;;2.47;;
14251;SDS011;7210;51.502;10.722;2023-12-22T04:32:00;9.17;;;2.10;;
14251;SDS011;7210;51.502;10.722;2023-12-22T04:34:27;10.63;;;2.17;;
14251;SDS011;7210;51.502;10.722;2023-12-22T04:36:54;14.00;;;3.33;;
14251;SDS011;7210;51.502;10.722;2023-12-22T04:39:21;11.37;;;2.33;;
14251;SDS011;7210;51.502;10.722;2023-12-22T04:41:49;10.43;;;2.23;;
14251;SDS011;7210;51.502;10.722;2023-12-22T04:44:16;11.60;;;2.47;;
14251;SDS011;7210;51.502;10.722;2023-12-22T04:46:43;5.70;;;1.57;;
14251;SDS011;7210;51.502;10.722;2023-12-22T04:49:11;8.23;;;1.90;;
14251;SDS011;7210;51.502;10.722;2023-12-22T04:51:38;8.57;;;2.13;;
14251;SDS011;7210;51.502;10.722;2023-12-22T04:54:05;9.50;;;2.23;;
14251;SDS011;7210;51.502;10.722;2023-12-22T04:56:32;10.03;;;2.27;;
14251;SDS011;7210;51.502;10.722;2023-12-22T04:59:00;8.90;;;1.93;;
14251;SDS011;7210;51.502;10.722;2023-12-22T05:01:27;7.97;;;2.63;;
14251;SDS011;7210;51.502;10.722;2023-12-22T05:03:54;9.00;;;2.50;;
14251;SDS011;7210;51.502;10.722;2023-12-22T05:06:21;13.77;;;2.87;;
14251;SDS011;7210;51.502;10.722;2023-12-22T05:08:53;11.07;;;2.70;;
14251;SDS011;7210;51.502;10.722;2023-12-22T05:11:21;10.50;;;2.83;;
14251;SDS011;7210;51.502;10.722;2023-12-22T05:13:48;7.90;;;2.33;;
14251;SDS011;7210;51.502;10.722;2023-12-22T05:16:17;10.40;;;2.60;;
14251;SDS011;7210;51.502;10.722;2023-12-22T05:21:56;11.87;;;3.30;;
14251;SDS011;7210;51.502;10.722;2023-12-22T05:24:23;18.33;;;3.53;;
14251;SDS011;7210;51.502;10.722;2023-12-22T05:26:50;15.67;;;2.93;;
14251;SDS011;7210;51.502;10.722;2023-12-22T05:29:18;14.20;;;3.43;;
14251;SDS011;7210;51.502;10.722;2023-12-22T05:31:46;11.63;;;3.30;;
14251;SDS011;7210;51.502;10.722;2023-12-22T05:34:13;13.00;;;2.90;;
14251;SDS011;7210;51.502;10.722;2023-12-22T05:36:40;12.23;;;3.20;;
14251;SDS011;7210;51.502;10.722;2023-12-22T05:39:08;8.63;;;2.77;;
14251;SDS011;7210;51.502;10.722;2023-12-22T05:41:35;14.10;;;2.90;;
14251;SDS011;7210;51.502;10.722;2023-12-22T05:44:03;13.83;;;2.97;;
14251;SDS011;7210;51.502;10.722;2023-12-22T05:46:36;14.63;;;3.77;;
14251;SDS011;7210;51.502;10.722;2023-12-22T05:49:05;12.70;;;2.97;;
14251;SDS011;7210;51.502;10.722;2023-12-22T05:51:36;13.40;;;2.80;;
14251;SDS011;7210;51.502;10.722;2023-12-22T05:54:04;10.77;;;2.70;;
14251;SDS011;7210;51.502;10.722;2023-12-22T05:56:31;12.33;;;3.03;;
14251;SDS011;7210;51.502;10.722;2023-12-22T05:58:59;10.13;;;2.83;;
14251;SDS011;7210;51.502;10.722;2023-12-22T06:01:26;11.33;;;2.47;;
14251;SDS011;7210;51.502;10.722;2023-12-22T06:03:53;9.30;;;3.03;;
14251;SDS011;7210;51.502;10.722;2023-12-22T06:06:21;12.60;;;3.27;;
14251;SDS011;7210;51.502;10.722;2023-12-22T06:08:48;12.33;;;2.87;;
14251;SDS011;7210;51.502;10.722;2023-12-22T06:11:15;11.70;;;2.80;;
14251;SDS011;7210;51.502;10.722;2023-12-22T06:13:42;11.53;;;2.63;;
14251;SDS011;7210;51.502;10.722;2023-12-22T06:16:12;13.57;;;2.60;;
14251;SDS011;7210;51.502;10.722;2023-12-22T06:18:41;10.90;;;2.43;;
14251;SDS011;7210;51.502;10.722;2023-12-22T06:21:08;9.13;;;1.97;;
14251;SDS011;7210;51.502;10.722;2023-12-22T06:23:37;7.23;;;2.10;;
14251;SDS011;7210;51.502;10.722;2023-12-22T06:26:07;9.63;;;1.93;;
14251;SDS011;7210;51.502;10.722;2023-12-22T06:28:35;8.53;;;1.73;;
14251;SDS011;7210;51.502;10.722;2023-12-22T06:31:03;9.47;;;1.87;;
14251;SDS011;7210;51.502;10.722;2023-12-22T06:33:30;10.23;;;2.07;;
14251;SDS011;7210;51.502;10.722;2023-12-22T06:36:00;9.03;;;2.00;;
14251;SDS011;7210;51.502;10.722;2023-12-22T06:38:27;9.07;;;1.87;;
14251;SDS011;7210;51.502;10.722;2023-12-22T06:40:57;11.00;;;2.80;;
14251;SDS011;7210;51.502;10.722;2023-12-22T06:43:24;6.90;;;1.60;;
14251;SDS011;7210;51.502;10.722;2023-12-22T06:45:51;7.07;;;1.80;;
14251;SDS011;7210;51.502;10.722;2023-12-22T06:48:24;8.80;;;4.03;;
14251;SDS011;7210;51.502;10.722;2023-12-22T06:50:51;14.77;;;6.53;;
14251;SDS011;7210;51.502;10.722;2023-12-22T06:53:24;10.93;;;5.57;;
14251;SDS011;7210;51.502;10.722;2023-12-22T06:55:51;7.23;;;2.57;;
14251;SDS011;7210;51.502;10.722;2023-12-22T06:58:19;6.77;;;2.13;;
14251;SDS011;7210;51.502;10.722;2023-12-22T07:00:46;5.00;;;1.60;;
14251;SDS011;7210;51.502;10.722;2023-12-22T07:03:13;7.90;;;1.77;;
14251;SDS011;7210;51.502;10.722;2023-12-22T07:05:41;7.03;;;2.27;;
14251;SDS011;7210;51.502;10.722;2023-12-22T07:08:12;7.00;;;2.30;;
14251;SDS011;7210;51.502;10.722;2023-12-22T07:10:38;5.57;;;1.80;;
14251;SDS011;7210;51.502;10.722;2023-12-22T07:13:06;8.70;;;2.00;;
14251;SDS011;7210;51.502;10.722;2023-12-22T07:15:34;10.73;;;3.47;;
14251;SDS011;7210;51.502;10.722;2023-12-22T07:18:01;5.90;;;1.80;;
14251;SDS011;7210;51.502;10.722;2023-12-22T07:20:28;9.00;;;2.27;;
14251;SDS011;7210;51.502;10.722;2023-12-22T07:22:55;6.03;;;2.27;;
14251;SDS011;7210;51.502;10.722;2023-12-22T07:25:22;6.63;;;2.50;;
14251;SDS011;7210;51.502;10.722;2023-12-22T07:27:49;4.07;;;1.67;;
14251;SDS011;7210;51.502;10.722;2023-12-22T07:30:16;4.53;;;1.57;;
14251;SDS011;7210;51.502;10.722;2023-12-22T07:32:45;10.70;;;3.67;;
14251;SDS011;7210;51.502;10.722;2023-12-22T07:35:14;7.93;;;2.80;;
14251;SDS011;7210;51.502;10.722;2023-12-22T07:37:42;7.30;;;1.80;;
14251;SDS011;7210;51.502;10.722;2023-12-22T07:40:09;8.73;;;1.77;;
14251;SDS011;7210;51.502;10.722;2023-12-22T07:42:37;13.17;;;9.10;;
14251;SDS011;7210;51.502;10.722;2023-12-22T07:45:06;7.50;;;3.23;;
14251;SDS011;7210;51.502;10.722;2023-12-22T07:47:42;4.83;;;1.80;;
14251;SDS011;7210;51.502;10.722;2023-12-22T07:50:10;7.37;;;1.60;;
14251;SDS011;7210;51.502;10.722;2023-12-22T07:52:37;6.77;;;1.50;;
14251;SDS011;7210;51.502;10.722;2023-12-22T07:55:05;9.67;;;1.73;;
14251;SDS011;7210;51.502;10.722;2023-12-22T07:57:36;8.27;;;2.17;;
14251;SDS011;7210;51.502;10.722;2023-12-22T08:00:03;9.30;;;2.20;;
14251;SDS011;7210;51.502;10.722;2023-12-22T08:02:37;12.57;;;2.10;;
14251;SDS011;7210;51.502;10.722;2023-12-22T08:05:04;8.13;;;2.30;;
14251;SDS011;7210;51.502;10.722;2023-12-22T08:07:32;16.03;;;3.47;;
14251;SDS011;7210;51.502;10.722;2023-12-22T08:09:59;8.37;;;2.63;;
14251;SDS011;7210;51.502;10.722;2023-12-22T08:12:27;10.77;;;2.07;;
14251;SDS011;7210;51.502;10.722;2023-12-22T08:14:54;8.50;;;2.80;;
14251;SDS011;7210;51.502;10.722;2023-12-22T08:17:21;14.17;;;2.60;;
14251;SDS011;7210;51.502;10.722;2023-12-22T08:19:54;10.97;;;2.50;;
14251;SDS011;7210;51.502;10.722;2023-12-22T08:22:21;11.60;;;2.93;;
14251;SDS011;7210;51.502;10.722;2023-12-22T08:24:50;7.27;;;2.00;;
14251;SDS011;7210;51.502;10.722;2023-12-22T08:27:16;9.77;;;2.53;;
14251;SDS011;7210;51.502;10.722;2023-12-22T08:29:43;8.53;;;2.10;;
14251;SDS011;7210;51.502;10.722;2023-12-22T08:32:10;8.57;;;2.27;;
14251;SDS011;7210;51.502;10.722;2023-12-22T08:34:37;11.20;;;2.53;;
14251;SDS011;7210;51.502;10.722;2023-12-22T08:37:04;13.73;;;2.63;;
14251;SDS011;7210;51.502;10.722;2023-12-22T08:39:31;11.50;;;2.60;;
14251;SDS011;7210;51.502;10.722;2023-12-22T08:41:59;10.07;;;2.33;;
14251;SDS011;7210;51.502;10.722;2023-12-22T08:44:30;11.27;;;2.73;;
14251;SDS011;7210;51.502;10.722;2023-12-22T08:46:56;12.53;;;2.50;;
14251;SDS011;7210;51.502;10.722;2023-12-22T08:49:23;11.17;;;2.70;;
14251;SDS011;7210;51.502;10.722;2023-12-22T08:51:50;9.07;;;3.13;;
14251;SDS011;7210;51.502;10.722;2023-12-22T08:54:17;10.53;;;2.50;;
14251;SDS011;7210;51.502;10.722;2023-12-22T08:56:48;8.87;;;2.70;;
14251;SDS011;7210;51.502;10.722;2023-12-22T08:59:16;12.80;;;2.23;;
14251;SDS011;7210;51.502;10.722;2023-12-22T09:01:43;7.37;;;2.33;;
14251;SDS011;7210;51.502;10.722;2023-12-22T09:04:10;6.17;;;3.17;;
14251;SDS011;7210;51.502;10.722;2023-12-22T09:06:37;11.10;;;2.67;;
14251;SDS011;7210;51.502;10.722;2023-12-22T09:09:04;9.17;;;2.47;;
14251;SDS011;7210;51.502;10.722;2023-12-22T09:11:32;12.33;;;2.77;;
14251;SDS011;7210;51.502;10.722;2023-12-22T09:14:00;16.87;;;4.13;;
14251;SDS011;7210;51.502;10.722;2023-12-22T09:16:28;11.33;;;2.67;;
14251;SDS011;7210;51.502;10.722;2023-12-22T09:18:55;7.70;;;2.13;;
14251;SDS011;7210;51.502;10.722;2023-12-22T09:21:22;8.30;;;2.30;;
14251;SDS011;7210;51.502;10.722;2023-12-22T09:23:49;9.07;;;2.50;;
14251;SDS011;7210;51.502;10.722;2023-12-22T09:26:16;10.73;;;3.03;;
14251;SDS011;7210;51.502;10.722;2023-12-22T09:28:43;13.50;;;3.10;;
14251;SDS011;7210;51.502;10.722;2023-12-22T09:31:12;11.50;;;3.00;;
14251;SDS011;7210;51.502;10.722;2023-12-22T09:33:55;8.83;;;2.77;;
14251;SDS011;7210;51.502;10.722;2023-12-22T09:36:30;7.83;;;2.73;;
14251;SDS011;7210;51.502;10.722;2023-12-22T09:38:57;11.57;;;2.73;;
14251;SDS011;7210;51.502;10.722;2023-12-22T09:41:24;14.80;;;3.77;;
14251;SDS011;7210;51.502;10.722;2023-12-22T09:43:50;11.73;;;2.43;;
14251;SDS011;7210;51.502;10.722;2023-12-22T09:46:21;12.00;;;2.77;;
14251;SDS011;7210;51.502;10.722;2023-12-22T09:48:55;15.80;;;2.53;;
14251;SDS011;7210;51.502;10.722;2023-12-22T09:51:22;12.13;;;2.70;;
14251;SDS011;7210;51.502;10.722;2023-12-22T09:53:49;8.07;;;2.30;;
14251;SDS011;7210;51.502;10.722;2023-12-22T09:56:17;10.17;;;2.53;;
14251;SDS011;7210;51.502;10.722;2023-12-22T09:58:48;12.17;;;3.10;;
14251;SDS011;7210;51.502;10.722;2023-12-22T10:01:18;14.57;;;2.63;;
14251;SDS011;7210;51.502;10.722;2023-12-22T10:03:47;13.23;;;3.27;;
14251;SDS011;7210;51.502;10.722;2023-12-22T10:06:16;7.27;;;2.23;;
14251;SDS011;7210;51.502;10.722;2023-12-22T10:08:43;7.60;;;2.80;;
14251;SDS011;7210;51.502;10.722;2023-12-22T10:11:12;10.50;;;2.50;;
14251;SDS011;7210;51.502;10.722;2023-12-22T10:13:40;14.83;;;2.73;;
14251;SDS011;7210;51.502;10.722;2023-12-22T10:16:08;10.77;;;2.50;;
14251;SDS011;7210;51.502;10.722;2023-12-22T10:18:35;11.87;;;3.90;;
14251;SDS011;7210;51.502;10.722;2023-12-22T10:21:02;42.20;;;23.27;;
14251;SDS011;7210;51.502;10.722;2023-12-22T10:23:31;31.13;;;16.57;;
14251;SDS011;7210;51.502;10.722;2023-12-22T10:25:58;13.63;;;6.23;;
14251;SDS011;7210;51.502;10.722;2023-12-22T10:28:27;10.83;;;3.60;;
14251;SDS011;7210;51.502;10.722;2023-12-22T10:31:06;11.70;;;5.77;;
14251;SDS011;7210;51.502;10.722;2023-12-22T10:33:33;14.63;;;5.27;;
14251;SDS011;7210;51.502;10.722;2023-12-22T10:36:00;10.97;;;2.80;;
14251;SDS011;7210;51.502;10.722;2023-12-22T10:38:33;10.87;;;3.20;;
14251;SDS011;7210;51.502;10.722;2023-12-22T10:41:01;8.77;;;2.40;;
14251;SDS011;7210;51.502;10.722;2023-12-22T10:43:28;8.73;;;2.07;;
14251;SDS011;7210;51.502;10.722;2023-12-22T10:45:55;7.00;;;2.37;;
14251;SDS011;7210;51.502;10.722;2023-12-22T10:48:22;6.37;;;1.73;;
14251;SDS011;7210;51.502;10.722;2023-12-22T10:50:49;8.10;;;2.70;;
14251;SDS011;7210;51.502;10.722;2023-12-22T10:53:16;14.27;;;2.67;;
14251;SDS011;7210;51.502;10.722;2023-12-22T10:55:44;9.73;;;2.40;;
14251;SDS011;7210;51.502;10.722;2023-12-22T10:58:15;8.37;;;2.60;;
14251;SDS011;7210;51.502;10.722;2023-12-22T11:00:44;9.27;;;2.10;;
14251;SDS011;7210;51.502;10.722;2023-12-22T11:03:12;11.77;;;2.40;;
14251;SDS011;7210;51.502;10.722;2023-12-22T11:05:48;10.13;;;2.73;;
14251;SDS011;7210;51.502;10.722;2023-12-22T11:08:17;10.93;;;2.20;;
14251;SDS011;7210;51.502;10.722;2023-12-22T11:10:48;10.20;;;2.77;;
14251;SDS011;7210;51.502;10.722;2023-12-22T11:13:19;9.37;;;2.10;;
14251;SDS011;7210;51.502;10.722;2023-12-22T11:15:47;10.43;;;2.80;;
14251;SDS011;7210;51.502;10.722;2023-12-22T11:18:15;9.00;;;2.20;;
14251;SDS011;7210;51.502;10.722;2023-12-22T11:20:44;11.13;;;3.13;;
14251;SDS011;7210;51.502;10.722;2023-12-22T11:23:14;7.60;;;2.20;;
14251;SDS011;7210;51.502;10.722;2023-12-22T11:25:43;6.93;;;2.40;;
14251;SDS011;7210;51.502;10.722;2023-12-22T11:28:13;11.90;;;2.30;;
14251;SDS011;7210;51.502;10.722;2023-12-22T11:30:42;10.67;;;2.20;;
14251;SDS011;7210;51.502;10.722;2023-12-22T11:33:09;4.83;;;1.73;;
14251;SDS011;7210;51.502;10.722;2023-12-22T11:35:37;7.70;;;1.70;;
14251;SDS011;7210;51.502;10.722;2023-12-22T11:38:05;8.00;;;1.67;;
14251;SDS011;7210;51.502;10.722;2023-12-22T11:40:34;3.47;;;1.60;;
14251;SDS011;7210;51.502;10.722;2023-12-22T11:43:00;5.93;;;1.70;;
14251;SDS011;7210;51.502;10.722;2023-12-22T11:45:31;4.97;;;1.40;;
14251;SDS011;7210;51.502;10.722;2023-12-22T11:48:04;2.27;;;1.37;;
14251;SDS011;7210;51.502;10.722;2023-12-22T11:50:32;4.27;;;1.17;;
14251;SDS011;7210;51.502;10.722;2023-12-22T11:55:58;4.60;;;1.50;;
14251;SDS011;7210;51.502;10.722;2023-12-22T11:58:39;3.07;;;1.40;;
14251;SDS011;7210;51.502;10.722;2023-12-22T12:01:08;4.20;;;1.37;;
14251;SDS011;7210;51.502;10.722;2023-12-22T12:03:37;2.80;;;1.30;;
14251;SDS011;7210;51.502;10.722;2023-12-22T12:09:01;6.47;;;1.43;;
14251;SDS011;7210;51.502;10.722;2023-12-22T12:14:40;4.53;;;1.20;;
14251;SDS011;7210;51.502;10.722;2023-12-22T12:17:14;5.20;;;1.80;;
14251;SDS011;7210;51.502;10.722;2023-12-22T12:19:44;7.60;;;4.53;;
14251;SDS011;7210;51.502;10.722;2023-12-22T12:22:14;7.20;;;3.70;;
14251;SDS011;7210;51.502;10.722;2023-12-22T12:24:41;2.77;;;1.20;;
14251;SDS011;7210;51.502;10.722;2023-12-22T12:27:08;5.97;;;1.30;;
14251;SDS011;7210;51.502;10.722;2023-12-22T12:29:35;3.50;;;1.40;;
14251;SDS011;7210;51.502;10.722;2023-12-22T12:32:06;3.97;;;1.40;;
14251;SDS011;7210;51.502;10.722;2023-12-22T12:34:36;8.17;;;1.70;;
14251;SDS011;7210;51.502;10.722;2023-12-22T12:37:04;7.30;;;1.30;;
14251;SDS011;7210;51.502;10.722;2023-12-22T12:39:36;4.67;;;1.20;;
14251;SDS011;7210;51.502;10.722;2023-12-22T12:42:06;3.30;;;1.00;;
14251;SDS011;7210;51.502;10.722;2023-12-22T12:44:34;3.93;;;1.30;;
14251;SDS011;7210;51.502;10.722;2023-12-22T12:47:10;4.73;;;1.40;;
14251;SDS011;7210;51.502;10.722;2023-12-22T12:49:39;2.80;;;1.20;;
14251;SDS011;7210;51.502;10.722;2023-12-22T12:52:11;3.83;;;1.30;;
14251;SDS011;7210;51.502;10.722;2023-12-22T12:54:38;1.97;;;1.40;;
14251;SDS011;7210;51.502;10.722;2023-12-22T12:57:05;4.50;;;1.40;;
14251;SDS011;7210;51.502;10.722;2023-12-22T12:59:32;2.53;;;1.17;;
14251;SDS011;7210;51.502;10.722;2023-12-22T13:02:00;4.77;;;1.30;;
14251;SDS011;7210;51.502;10.722;2023-12-22T13:04:36;2.03;;;1.00;;
14251;SDS011;7210;51.502;10.722;2023-12-22T13:07:05;4.00;;;1.50;;
14251;SDS011;7210;51.502;10.722;2023-12-22T13:09:36;3.60;;;1.30;;
14251;SDS011;7210;51.502;10.722;2023-12-22T13:12:03;5.60;;;1.40;;
14251;SDS011;7210;51.502;10.722;2023-12-22T13:14:31;3.77;;;1.33;;
14251;SDS011;7210;51.502;10.722;2023-12-22T13:16:58;5.47;;;1.53;;
14251;SDS011;7210;51.502;10.722;2023-12-22T13:19:25;5.80;;;1.63;;
14251;SDS011;7210;51.502;10.722;2023-12-22T13:21:53;3.73;;;1.70;;
14251;SDS011;7210;51.502;10.722;2023-12-22T13:24:27;2.53;;;1.27;;
14251;SDS011;7210;51.502;10.722;2023-12-22T13:26:59;2.77;;;1.17;;
14251;SDS011;7210;51.502;10.722;2023-12-22T13:29:50;4.50;;;1.60;;
14251;SDS011;7210;51.502;10.722;2023-12-22T13:32:19;2.60;;;1.30;;
14251;SDS011;7210;51.502;10.722;2023-12-22T13:34:52;2.67;;;1.30;;
14251;SDS011;7210;51.502;10.722;2023-12-22T13:37:20;4.80;;;1.50;;
14251;SDS011;7210;51.502;10.722;2023-12-22T13:39:49;4.23;;;1.50;;
14251;SDS011;7210;51.502;10.722;2023-12-22T13:42:16;6.37;;;1.20;;
14251;SDS011;7210;51.502;10.722;2023-12-22T13:44:45;3.10;;;1.50;;
14251;SDS011;7210;51.502;10.722;2023-12-22T13:47:14;2.77;;;1.73;;
14251;SDS011;7210;51.502;10.722;2023-12-22T13:49:42;3.43;;;1.57;;
14251;SDS011;7210;51.502;10.722;2023-12-22T13:52:24;4.80;;;1.50;;
14251;SDS011;7210;51.502;10.722;2023-12-22T15:37:15;1.93;;;1.30;;
14251;SDS011;7210;51.502;10.722;2023-12-22T15:39:43;3.10;;;1.20;;
14251;SDS011;7210;51.502;10.722;2023-12-22T15:42:11;3.43;;;1.20;;
14251;SDS011;7210;51.502;10.722;2023-12-22T15:44:41;1.83;;;1.00;;
14251;SDS011;7210;51.502;10.722;2023-12-22T15:47:08;2.77;;;1.10;;
14251;SDS011;7210;51.502;10.722;2023-12-22T15:52:38;2.40;;;1.20;;
14251;SDS011;7210;51.502;10.722;2023-12-22T15:55:07;2.70;;;1.03;;
14251;SDS011;7210;51.502;10.722;2023-12-22T15:57:39;2.20;;;1.10;;
14251;SDS011;7210;51.502;10.722;2023-12-22T16:00:08;1.40;;;0.90;;
14251;SDS011;7210;51.502;10.722;2023-12-22T16:02:50;1.20;;;0.90;;
14251;SDS011;7210;51.502;10.722;2023-12-22T16:05:23;2.97;;;1.10;;
14251;SDS011;7210;51.502;10.722;2023-12-22T16:07:56;3.13;;;1.10;;
14251;SDS011;7210;51.502;10.722;2023-12-22T16:10:32;1.53;;;0.83;;
14251;SDS011;7210;51.502;10.722;2023-12-22T16:13:10;1.07;;;0.80;;
14251;SDS011;7210;51.502;10.722;2023-12-22T16:15:38;1.07;;;0.80;;
14251;SDS011;7210;51.502;10.722;2023-12-22T16:21:04;1.97;;;1.00;;
14251;SDS011;7210;51.502;10.722;2023-12-22T16:23:32;2.17;;;0.90;;
14251;SDS011;7210;51.502;10.722;2023-12-22T16:25:59;2.33;;;0.60;;
14251;SDS011;7210;51.502;10.722;2023-12-22T16:28:32;0.70;;;0.70;;
14251;SDS011;7210;51.502;10.722;2023-12-22T16:31:02;0.80;;;0.80;;
14251;SDS011;7210;51.502;10.722;2023-12-22T16:33:38;0.70;;;0.70;;
14251;SDS011;7210;51.502;10.722;2023-12-22T16:36:09;0.53;;;0.53;;
14251;SDS011;7210;51.502;10.722;2023-12-22T16:38:36;1.50;;;1.03;;
14251;SDS011;7210;51.502;10.722;2023-12-22T16:41:08;1.93;;;0.70;;
14251;SDS011;7210;51.502;10.722;2023-12-22T16:43:50;1.30;;;0.90;;
14251;SDS011;7210;51.502;10.722;2023-12-22T16:46:26;1.00;;;0.90;;
14251;SDS011;7210;51.502;10.722;2023-12-22T16:48:56;0.97;;;0.90;;
14251;SDS011;7210;51.502;10.722;2023-12-22T16:51:24;1.03;;;0.80;;
14251;SDS011;7210;51.502;10.722;2023-12-22T16:54:02;0.83;;;0.73;;
14251;SDS011;7210;51.502;10.722;2023-12-22T16:56:29;1.13;;;0.90;;
14251;SDS011;7210;51.502;10.722;2023-12-22T16:59:02;1.33;;;1.13;;
14251;SDS011;7210;51.502;10.722;2023-12-22T17:01:29;20.97;;;12.90;;
14251;SDS011;7210;51.502;10.722;2023-12-22T17:03:56;7.43;;;4.40;;
14251;SDS011;7210;51.502;10.722;2023-12-22T17:06:27;15.67;;;10.00;;
14251;SDS011;7210;51.502;10.722;2023-12-22T17:09:02;11.10;;;7.27;;
14251;SDS011;7210;51.502;10.722;2023-12-22T17:11:32;5.27;;;4.10;;
14251;SDS011;7210;51.502;10.722;2023-12-22T17:14:02;6.90;;;5.80;;
14251;SDS011;7210;51.502;10.722;2023-12-22T17:16:38;1.50;;;0.80;;
14251;SDS011;7210;51.502;10.722;2023-12-22T17:19:08;1.40;;;1.20;;
14251;SDS011;7210;51.502;10.722;2023-12-22T17:21:37;1.13;;;1.03;;
14251;SDS011;7210;51.502;10.722;2023-12-22T17:24:07;1.33;;;1.07;;
14251;SDS011;7210;51.502;10.722;2023-12-22T17:26:34;1.50;;;0.90;;
14251;SDS011;7210;51.502;10.722;2023-12-22T17:29:08;1.90;;;0.90;;
14251;SDS011;7210;51.502;10.722;2023-12-22T17:31:44;1.13;;;0.77;;
14251;SDS011;7210;51.502;10.722;2023-12-22T17:34:11;0.80;;;0.67;;
14251;SDS011;7210;51.502;10.722;2023-12-22T17:36:45;1.47;;;0.70;;
14251;SDS011;7210;51.502;10.722;2023-12-22T17:39:14;1.83;;;0.90;;
14251;SDS011;7210;51.502;10.722;2023-12-22T17:44:38;2.13;;;0.80;;
14251;SDS011;7210;51.502;10.722;2023-12-22T17:47:14;2.03;;;1.00;;
14251;SDS011;7210;51.502;10.722;2023-12-22T17:49:41;1.17;;;0.70;;
14251;SDS011;7210;51.502;10.722;2023-12-22T17:52:15;0.90;;;0.90;;
14251;SDS011;7210;51.502;10.722;2023-12-22T17:54:44;1.20;;;0.90;;
14251;SDS011;7210;51.502;10.722;2023-12-22T17:57:14;0.97;;;0.73;;
14251;SDS011;7210;51.502;10.722;2023-12-22T17:59:41;1.47;;;0.73;;
14251;SDS011;7210;51.502;10.722;2023-12-22T18:02:26;1.33;;;0.80;;
14251;SDS011;7210;51.502;10.722;2023-12-22T18:04:53;1.83;;;0.80;;
14251;SDS011;7210;51.502;10.722;2023-12-22T18:07:22;1.53;;;0.77;;
14251;SDS011;7210;51.502;10.722;2023-12-22T18:09:50;1.00;;;0.90;;
14251;SDS011;7210;51.502;10.722;2023-12-22T18:12:17;0.80;;;0.70;;
14251;SDS011;7210;51.502;10.722;2023-12-22T18:14:56;1.80;;;0.90;;
14251;SDS011;7210;51.502;10.722;2023-12-22T18:17:26;1.50;;;0.80;;
14251;SDS011;7210;51.502;10.722;2023-12-22T18:19:56;1.73;;;0.80;;
14251;SDS011;7210;51.502;10.722;2023-12-22T18:25:26;0.90;;;0.90;;
14251;SDS011;7210;51.502;10.722;2023-12-22T18:28:02;0.93;;;0.93;;
14251;SDS011;7210;51.502;10.722;2023-12-22T18:33:20;1.10;;;0.87;;
14251;SDS011;7210;51.502;10.722;2023-12-22T18:35:51;0.90;;;0.77;;
14251;SDS011;7210;51.502;10.722;2023-12-22T18:38:28;0.70;;;0.70;;
14251;SDS011;7210;51.502;10.722;2023-12-22T18:40:55;2.93;;;0.77;;
14251;SDS011;7210;51.502;10.722;2023-12-22T18:43:32;0.70;;;0.67;;
14251;SDS011;7210;51.502;10.722;2023-12-22T18:45:59;0.80;;;0.67;;
14251;SDS011;7210;51.502;10.722;2023-12-22T18:48:41;0.70;;;0.70;;